Terminal Aerodrome Forecast
Issued by NWS Sioux Falls, SD

Home | Current Version | Previous Version | Text Only | Print | Product List | Glossary On
Versions: 1 2 3 4 5 6 7 8 9 10 11 12 13 14 15 16
000
FTUS43 KFSD 301129
TAFSUX
TAF
KSUX 301129Z 3012/3112 13004KT P6SM SCT120
     FM301500 30008KT P6SM SCT050
     FM301800 33014G20KT P6SM BKN040
     FM302100 34018G25KT P6SM BKN035
     FM310300 35015G22KT P6SM SKC
     FM310700 35010KT P6SM SKC=

USA.gov is the U.S. government's official web portal to all federal, state and local government web resources and services.